Time;durP1;ratioP1;P1;durP2;ratioP2;P2;SDS_P1;SDS_P2;PMS_P1;PMS_P2;Temp;Humidity;BMP_temperature;BMP_pressure;BME280_temperature;BME280_humidity;BME280_pressure;Samples;Min_cycle;Max_cycle;Signal;HPM_P1;HPM_P2
2022/01/07 00:02:00;;;;;;;3.60;2.92;;;;;;;2.13;67.85;98754.47;1781727;80;21091;-39
2022/01/07 00:04:27;;;;;;;3.42;2.95;;;;;;;2.12;67.19;98758.27;1779193;80;22147;-39
2022/01/07 00:06:53;;;;;;;3.87;2.92;;;;;;;2.09;66.84;98765.57;1770278;80;21071;-39
2022/01/07 00:09:20;;;;;;;3.95;2.85;;;;;;;2.10;67.08;98765.81;1783695;79;21149;-39
2022/01/07 00:11:46;;;;;;;3.12;2.35;;;;;;;2.11;66.61;98768.73;1783422;80;21056;-40
2022/01/07 00:14:13;;;;;;;4.25;2.60;;;;;;;2.12;66.40;98776.98;1772297;80;21278;-39
2022/01/07 00:16:40;;;;;;;3.25;2.83;;;;;;;2.12;66.38;98779.66;1769424;80;21829;-39
2022/01/07 00:19:06;;;;;;;4.55;2.92;;;;;;;2.10;66.64;98773.83;1779620;80;21000;-39
2022/01/07 00:21:33;;;;;;;3.52;2.85;;;;;;;2.08;66.70;98772.59;1783102;80;21018;-39
2022/01/07 00:24:00;;;;;;;4.00;3.20;;;;;;;2.05;66.67;98775.88;1764074;80;21091;-39
2022/01/07 00:26:27;;;;;;;5.05;3.30;;;;;;;2.04;66.43;98777.77;1752954;80;21091;-39
2022/01/07 00:28:53;;;;;;;4.33;2.95;;;;;;;2.03;66.50;98786.88;1776922;80;21099;-39
2022/01/07 00:31:20;;;;;;;3.83;3.05;;;;;;;2.06;66.41;98797.52;1769773;80;20980;-39
2022/01/07 00:33:46;;;;;;;4.40;2.80;;;;;;;2.04;65.99;98793.81;1773173;80;21122;-39
2022/01/07 00:36:13;;;;;;;4.85;2.90;;;;;;;2.04;65.45;98797.03;1753093;80;21015;-39
2022/01/07 00:38:40;;;;;;;3.58;2.67;;;;;;;2.03;65.36;98794.91;1758205;80;21094;-39
2022/01/07 00:41:07;;;;;;;3.37;2.50;;;;;;;2.03;64.52;98801.59;1771786;80;21120;-39
2022/01/07 00:43:34;;;;;;;3.70;2.83;;;;;;;2.00;64.11;98801.44;1783144;80;21545;-39
2022/01/07 00:46:00;;;;;;;3.17;2.42;;;;;;;2.00;63.59;98803.57;1782534;80;20992;-39
2022/01/07 00:48:27;;;;;;;4.12;2.70;;;;;;;1.98;63.44;98793.77;1779123;80;21011;-39
2022/01/07 00:50:53;;;;;;;3.80;2.30;;;;;;;2.01;63.22;98795.00;1763178;80;21108;-39
2022/01/07 00:53:20;;;;;;;3.40;2.37;;;;;;;2.00;62.92;98801.44;1716142;83;21152;-40
2022/01/07 00:55:47;;;;;;;3.05;2.25;;;;;;;1.98;62.62;98783.61;1722084;82;21525;-39
2022/01/07 00:58:13;;;;;;;3.75;2.50;;;;;;;1.95;62.63;98802.39;1781918;80;21055;-40
2022/01/07 01:00:40;;;;;;;3.05;2.45;;;;;;;1.93;62.97;98808.62;1785528;79;21090;-39
2022/01/07 01:03:07;;;;;;;4.15;2.75;;;;;;;1.91;63.39;98810.81;1763556;80;21000;-39
2022/01/07 01:05:33;;;;;;;4.50;2.67;;;;;;;1.90;63.56;98805.23;1776790;80;21128;-39
2022/01/07 01:08:01;;;;;;;3.33;2.70;;;;;;;1.88;63.89;98806.11;1770813;80;21098;-39
2022/01/07 01:10:28;;;;;;;4.00;3.08;;;;;;;1.86;63.91;98810.97;1755958;80;21107;-40
2022/01/07 01:12:55;;;;;;;4.97;3.35;;;;;;;1.82;64.35;98815.38;1736117;82;21061;-39
2022/01/07 01:15:25;;;;;;;3.98;3.00;;;;;;;1.80;64.47;98808.22;1746891;81;21044;-39
2022/01/07 01:17:52;;;;;;;5.87;3.05;;;;;;;1.74;64.74;98812.92;1754218;81;21110;-39
2022/01/07 01:20:19;;;;;;;4.40;2.70;;;;;;;1.71;64.68;98811.44;1740514;81;21021;-39
2022/01/07 01:22:47;;;;;;;4.42;2.72;;;;;;;1.68;64.83;98826.78;1736000;82;21677;-39
2022/01/07 01:25:13;;;;;;;5.92;2.62;;;;;;;1.68;64.98;98824.10;1736759;81;21820;-39
2022/01/07 01:27:40;;;;;;;3.22;2.47;;;;;;;1.65;64.89;98824.71;1736094;82;21088;-39
2022/01/07 01:30:10;;;;;;;4.17;2.58;;;;;;;1.61;65.11;98821.89;1744839;81;21091;-39
2022/01/07 01:32:37;;;;;;;4.10;2.50;;;;;;;1.59;65.21;98834.00;1736064;81;21000;-39
2022/01/07 01:35:06;;;;;;;3.00;2.30;;;;;;;1.60;65.54;98852.91;1736919;81;21278;-39
2022/01/07 01:37:34;;;;;;;2.70;1.95;;;;;;;1.56;65.72;98861.31;1762930;81;21610;-39
2022/01/07 01:40:00;;;;;;;3.40;2.10;;;;;;;1.51;66.14;98861.47;1744747;81;21008;-39
2022/01/07 01:42:28;;;;;;;2.72;1.92;;;;;;;1.49;66.26;98859.67;1743630;81;20977;-39
2022/01/07 01:44:55;;;;;;;2.55;1.55;;;;;;;1.50;66.34;98853.23;1759698;81;20962;-39
2022/01/07 01:47:22;;;;;;;2.72;1.90;;;;;;;1.49;66.17;98873.03;1764328;81;21091;-39
2022/01/07 01:49:49;;;;;;;2.37;1.70;;;;;;;1.46;66.11;98862.95;1745571;81;20961;-39
2022/01/07 01:52:15;;;;;;;3.42;1.90;;;;;;;1.44;66.45;98867.28;1730808;81;21044;-39
2022/01/07 01:54:45;;;;;;;2.60;1.57;;;;;;;1.43;66.55;98867.05;1736090;81;21160;-39
2022/01/07 01:57:13;;;;;;;2.30;1.65;;;;;;;1.46;66.70;98871.75;1756899;81;25676;-39
2022/01/07 01:59:40;;;;;;;2.42;1.70;;;;;;;1.43;66.86;98868.92;1748040;81;20985;-39
2022/01/07 02:02:07;;;;;;;1.62;1.37;;;;;;;1.42;66.92;98882.03;1748912;81;21017;-39
2022/01/07 02:04:36;;;;;;;1.92;1.40;;;;;;;1.41;66.99;98879.12;1752435;81;21041;-39
2022/01/07 02:07:06;;;;;;;1.70;1.50;;;;;;;1.41;66.87;98887.92;1766579;81;21147;-39
2022/01/07 02:09:35;;;;;;;1.67;1.40;;;;;;;1.40;66.79;98881.03;1739916;81;21504;-39
2022/01/07 02:12:05;;;;;;;1.90;1.60;;;;;;;1.42;67.05;98885.49;1747538;80;21016;-39
2022/01/07 02:14:36;;;;;;;1.82;1.47;;;;;;;1.45;67.37;98892.12;1769015;80;21103;-39
2022/01/07 02:17:08;;;;;;;1.80;1.20;;;;;;;1.45;67.50;98901.47;1781802;80;20977;-39
2022/01/07 02:19:37;;;;;;;2.12;1.45;;;;;;;1.42;68.35;98907.41;1762985;80;21105;-39
2022/01/07 02:22:05;;;;;;;2.05;1.42;;;;;;;1.37;69.01;98904.33;1752250;80;21598;-39
2022/01/07 02:26:28;;;;;;;2.75;1.55;;;;;;;1.41;69.95;98904.48;1830580;78;22218;-39
2022/01/07 02:28:55;;;;;;;2.75;1.60;;;;;;;1.34;70.11;98909.52;1802088;78;20921;-39
2022/01/07 02:31:22;;;;;;;2.20;1.52;;;;;;;1.36;69.57;98908.64;1797901;79;21173;-38
2022/01/07 02:33:48;;;;;;;1.12;0.82;;;;;;;1.40;69.19;98918.97;1794921;78;20965;-38
2022/01/07 02:36:15;;;;;;;1.62;1.15;;;;;;;1.40;68.22;98917.63;1814774;78;20953;-38
2022/01/07 02:38:42;;;;;;;1.00;0.90;;;;;;;1.42;67.38;98912.75;1817181;78;21567;-39
2022/01/07 02:41:08;;;;;;;1.55;1.07;;;;;;;1.40;67.05;98922.97;1838213;78;20949;-39
2022/01/07 02:43:35;;;;;;;1.35;1.02;;;;;;;1.42;67.18;98926.10;1816693;78;21109;-39
2022/01/07 02:46:02;;;;;;;3.20;1.20;;;;;;;1.45;67.14;98932.18;1840130;78;21271;-39
2022/01/07 02:48:29;;;;;;;1.57;1.10;;;;;;;1.47;66.96;98929.97;1837315;77;20993;-39
2022/01/07 02:50:56;;;;;;;2.08;1.07;;;;;;;1.47;66.80;98941.98;1814099;78;21095;-38
2022/01/07 02:53:23;;;;;;;1.30;1.00;;;;;;;1.47;66.11;98940.11;1838848;78;21056;-39
2022/01/07 02:55:50;;;;;;;1.90;0.95;;;;;;;1.46;66.48;98951.88;1841065;78;21809;-39
2022/01/07 02:58:17;;;;;;;1.75;1.20;;;;;;;1.48;66.50;98951.58;1787292;79;21007;-38
2022/01/07 03:00:44;;;;;;;1.32;0.88;;;;;;;1.45;66.17;98957.55;1818759;78;21009;-38
2022/01/07 03:03:11;;;;;;;1.62;1.00;;;;;;;1.45;65.77;98966.91;1813669;78;20985;-38
2022/01/07 03:05:41;;;;;;;3.25;1.07;;;;;;;1.42;65.75;98967.50;1806847;79;21020;-38
2022/01/07 03:08:06;;;;;;;1.03;0.80;;;;;;;1.42;65.33;98972.84;1815377;78;21124;-39
2022/01/07 03:10:33;;;;;;;1.12;0.90;;;;;;;1.41;65.50;98983.28;1824901;77;20969;-39
2022/01/07 03:13:01;;;;;;;1.00;0.90;;;;;;;1.40;65.50;98985.73;1835796;78;21068;-39
2022/01/07 03:15:28;;;;;;;1.10;0.90;;;;;;;1.38;65.27;98985.24;1784979;79;21079;-39
2022/01/07 03:17:56;;;;;;;0.95;0.90;;;;;;;1.35;64.81;98989.88;1794312;79;21009;-39
2022/01/07 03:20:22;;;;;;;1.20;1.00;;;;;;;1.34;64.92;98993.63;1798327;79;21120;-38
2022/01/07 03:22:49;;;;;;;1.65;1.10;;;;;;;1.33;64.72;98999.52;1802597;78;20921;-39
2022/01/07 03:25:17;;;;;;;1.00;0.90;;;;;;;1.29;64.77;98996.69;1814568;78;20957;-38
2022/01/07 03:27:43;;;;;;;1.65;1.05;;;;;;;1.31;64.55;99009.16;1813767;79;21005;-38
2022/01/07 03:30:12;;;;;;;1.17;0.90;;;;;;;1.35;64.61;99005.35;1806136;78;21011;-38
2022/01/07 03:32:38;;;;;;;1.30;0.95;;;;;;;1.36;64.24;99011.45;1780673;79;21797;-38
2022/01/07 03:35:09;;;;;;;0.93;0.80;;;;;;;1.35;63.77;99027.27;1813136;78;20949;-38
2022/01/07 03:37:39;;;;;;;1.65;0.90;;;;;;;1.35;63.97;99023.25;1761661;80;20990;-38
2022/01/07 03:40:07;;;;;;;1.25;0.90;;;;;;;1.33;63.90;99034.78;1755842;80;20942;-38
2022/01/07 03:42:34;;;;;;;1.07;0.80;;;;;;;1.34;63.40;99036.36;1753218;80;21480;-38
2022/01/07 03:45:01;;;;;;;1.47;0.90;;;;;;;1.29;62.87;99038.07;1769663;80;21113;-38
2022/01/07 03:47:28;;;;;;;1.40;0.75;;;;;;;1.30;63.00;99040.20;1829237;78;21013;-38
2022/01/07 03:49:55;;;;;;;1.12;0.93;;;;;;;1.35;63.00;99041.95;1802935;78;20973;-38
2022/01/07 03:52:21;;;;;;;1.90;1.00;;;;;;;1.37;63.33;99053.09;1794175;79;21278;-38
2022/01/07 03:54:50;;;;;;;2.00;1.15;;;;;;;1.39;64.12;99061.06;1808520;78;21017;-39
2022/01/07 03:57:19;;;;;;;1.55;1.00;;;;;;;1.34;64.95;99048.37;1758710;81;21184;-38
2022/01/07 03:59:47;;;;;;;1.62;0.98;;;;;;;1.28;65.67;99069.08;1749510;81;20980;-39
2022/01/07 04:02:14;;;;;;;1.52;1.40;;;;;;;1.23;66.52;99067.87;1737552;81;20962;-39
2022/01/07 04:04:41;;;;;;;2.12;1.50;;;;;;;1.18;67.26;99068.78;1731930;81;20976;-38
2022/01/07 04:07:07;;;;;;;1.92;1.40;;;;;;;1.15;67.85;99068.06;1735110;82;21021;-38
2022/01/07 04:09:34;;;;;;;1.45;1.12;;;;;;;1.13;68.45;99071.58;1734054;82;21073;-38
2022/01/07 04:12:01;;;;;;;2.05;1.27;;;;;;;1.11;68.83;99079.66;1746483;82;21028;-39
2022/01/07 04:14:28;;;;;;;1.82;1.10;;;;;;;1.12;69.13;99077.20;1757886;81;21532;-38
2022/01/07 04:16:55;;;;;;;1.82;1.30;;;;;;;1.09;69.63;99085.83;1738801;81;21073;-38
2022/01/07 04:19:22;;;;;;;2.55;1.17;;;;;;;1.04;69.96;99082.74;1762196;81;20962;-38
2022/01/07 04:21:49;;;;;;;1.42;1.27;;;;;;;0.97;70.32;99087.70;1768286;81;21117;-38
2022/01/07 04:24:17;;;;;;;1.98;1.52;;;;;;;0.94;70.49;99085.65;1756604;80;21029;-38
2022/01/07 04:26:43;;;;;;;1.72;1.32;;;;;;;0.87;70.66;99092.73;1715483;82;21468;-38
2022/01/07 04:29:10;;;;;;;1.35;1.10;;;;;;;0.86;70.46;99078.37;1726102;82;21033;-38
2022/01/07 04:31:36;;;;;;;1.92;1.20;;;;;;;0.85;70.37;99087.46;1753714;81;20990;-38
2022/01/07 04:34:03;;;;;;;1.40;1.10;;;;;;;0.86;70.60;99098.39;1756927;81;21102;-38
2022/01/07 04:36:31;;;;;;;1.70;1.30;;;;;;;0.86;71.09;99099.17;1767189;81;20997;-38
2022/01/07 04:38:58;;;;;;;3.55;1.55;;;;;;;0.80;72.17;99095.04;1770257;80;21476;-39
2022/01/07 04:41:25;;;;;;;1.50;1.40;;;;;;;0.76;72.92;99112.74;1786135;79;21504;-39
2022/01/07 04:43:51;;;;;;;2.77;1.77;;;;;;;0.69;73.49;99115.02;1790124;79;21786;-39
2022/01/07 04:46:18;;;;;;;2.30;1.32;;;;;;;0.68;73.73;99120.11;1756608;80;21085;-38
2022/01/07 04:48:44;;;;;;;1.47;1.35;;;;;;;0.65;74.09;99124.72;1782002;79;20890;-39
2022/01/07 04:51:12;;;;;;;1.50;1.30;;;;;;;0.63;74.18;99121.55;1801930;79;20866;-38
2022/01/07 04:53:38;;;;;;;1.50;1.40;;;;;;;0.64;74.01;99129.80;1801009;79;21068;-38
2022/01/07 04:56:05;;;;;;;1.70;1.50;;;;;;;0.67;73.78;99129.77;1793091;79;21025;-38
2022/01/07 04:58:31;;;;;;;2.22;1.40;;;;;;;0.64;73.57;99133.02;1801064;79;21133;-38
2022/01/07 05:00:58;;;;;;;2.65;1.62;;;;;;;0.63;73.52;99147.46;1764398;80;21878;-38
2022/01/07 05:03:25;;;;;;;2.10;1.62;;;;;;;0.64;73.00;99147.14;1762050;80;21547;-38
2022/01/07 05:06:02;;;;;;;2.17;1.72;;;;;;;0.63;72.41;99155.47;1801786;79;21045;-38
2022/01/07 05:08:20;;;;;;;1.90;1.40;;;;;;;0.58;72.22;99156.33;1771782;79;21048;-39
2022/01/07 05:10:47;;;;;;;2.20;1.60;;;;;;;0.56;72.39;99159.06;1762557;80;22410;-38
2022/01/07 05:13:14;;;;;;;2.27;1.60;;;;;;;0.57;71.91;99157.98;1761869;81;21523;-38
2022/01/07 05:15:40;;;;;;;2.92;1.75;;;;;;;0.55;71.82;99153.48;1752497;81;21020;-38
2022/01/07 05:18:08;;;;;;;2.35;1.65;;;;;;;0.55;71.46;99164.15;1725264;82;21275;-38
2022/01/07 05:20:35;;;;;;;2.33;1.60;;;;;;;0.54;71.63;99166.56;1802498;79;21052;-39
2022/01/07 05:23:02;;;;;;;2.98;1.90;;;;;;;0.56;71.52;99179.07;1764466;81;21123;-38
2022/01/07 05:25:28;;;;;;;2.47;1.80;;;;;;;0.54;71.15;99180.69;1800581;79;20926;-38
2022/01/07 05:27:55;;;;;;;2.17;1.50;;;;;;;0.53;70.76;99179.67;1793852;78;21541;-38
2022/01/07 05:30:22;;;;;;;3.15;1.42;;;;;;;0.55;70.65;99190.28;1800733;78;21022;-39
2022/01/07 05:32:49;;;;;;;1.67;1.45;;;;;;;0.55;70.70;99187.61;1815417;78;21077;-38
2022/01/07 05:35:15;;;;;;;2.50;1.60;;;;;;;0.58;69.99;99200.91;1784011;78;21082;-39
2022/01/07 05:37:42;;;;;;;1.90;1.62;;;;;;;0.56;70.07;99225.75;1804404;79;21052;-38
2022/01/07 05:40:11;;;;;;;2.58;1.30;;;;;;;0.60;71.08;99233.40;1808171;78;20969;-38
2022/01/07 05:42:38;;;;;;;2.75;1.40;;;;;;;0.55;70.62;99241.50;1802411;78;21025;-38
2022/01/07 05:45:06;;;;;;;2.47;1.30;;;;;;;0.49;70.40;99242.13;1801619;78;21014;-38
2022/01/07 05:47:33;;;;;;;1.62;1.20;;;;;;;0.40;70.75;99246.03;1796499;79;21045;-38
2022/01/07 05:49:59;;;;;;;1.60;1.25;;;;;;;0.38;70.98;99249.56;1801421;78;20971;-38
2022/01/07 05:52:26;;;;;;;1.45;1.25;;;;;;;0.34;71.13;99261.87;1821941;78;21016;-38
2022/01/07 05:54:52;;;;;;;1.42;1.15;;;;;;;0.35;71.04;99269.33;1815412;78;20965;-38
2022/01/07 05:57:19;;;;;;;2.42;1.37;;;;;;;0.31;70.07;99274.47;1819021;78;21090;-38
2022/01/07 05:59:45;;;;;;;2.30;1.30;;;;;;;0.25;69.20;99280.97;1799946;79;21069;-38
2022/01/07 06:02:12;;;;;;;3.05;1.27;;;;;;;0.17;68.85;99274.98;1814677;78;20990;-38
2022/01/07 06:04:38;;;;;;;1.35;1.12;;;;;;;0.13;68.46;99287.33;1737592;81;20933;-38
2022/01/07 06:07:05;;;;;;;1.60;1.15;;;;;;;0.06;68.50;99297.55;1813002;79;20996;-38
2022/01/07 06:09:33;;;;;;;1.20;1.10;;;;;;;0.02;68.41;99295.23;1823699;78;20946;-38
2022/01/07 06:12:01;;;;;;;2.60;1.47;;;;;;;-0.01;68.31;99306.48;1820508;78;21563;-38
2022/01/07 06:14:28;;;;;;;2.10;1.20;;;;;;;-0.06;68.33;99307.89;1812646;78;20993;-38
2022/01/07 06:16:55;;;;;;;1.95;1.40;;;;;;;-0.08;68.39;99312.70;1803577;79;20991;-38
2022/01/07 06:19:22;;;;;;;2.17;1.32;;;;;;;-0.07;68.32;99327.63;1807649;79;20961;-38
2022/01/07 06:21:49;;;;;;;2.92;1.55;;;;;;;-0.06;67.85;99329.21;1806326;78;21025;-38
2022/01/07 06:24:15;;;;;;;3.85;1.45;;;;;;;-0.06;67.43;99335.88;1788084;78;21113;-38
2022/01/07 06:26:42;;;;;;;2.75;1.52;;;;;;;-0.11;67.47;99335.95;1792297;79;20970;-39
2022/01/07 06:29:10;;;;;;;1.67;1.20;;;;;;;-0.11;67.17;99337.28;1785843;79;21535;-38
2022/01/07 06:31:37;;;;;;;1.60;1.20;;;;;;;-0.12;66.67;99347.68;1777333;78;21040;-38
2022/01/07 06:34:04;;;;;;;2.55;1.45;;;;;;;-0.14;66.20;99355.16;1782287;79;21011;-38
2022/01/07 06:36:31;;;;;;;2.80;1.60;;;;;;;-0.53;65.26;99293.66;1797169;79;21395;-38
2022/01/07 06:38:58;;;;;;;2.75;1.65;;;;;;;-0.23;65.39;99360.89;1776987;78;20968;-38
2022/01/07 06:41:25;;;;;;;1.82;1.40;;;;;;;-0.24;65.14;99361.42;1783046;80;21494;-38
2022/01/07 06:43:52;;;;;;;3.98;1.40;;;;;;;-0.26;64.21;99364.14;1783525;80;21045;-38
2022/01/07 06:46:18;;;;;;;1.62;1.20;;;;;;;-0.26;64.11;99372.13;1783043;80;21069;-38
2022/01/07 06:48:46;;;;;;;2.62;1.42;;;;;;;-0.27;64.07;99371.88;1787759;79;21137;-38
2022/01/07 06:51:12;;;;;;;2.12;1.60;;;;;;;-0.27;64.08;99386.52;1789999;80;21012;-38
2022/01/07 06:53:39;;;;;;;3.37;1.77;;;;;;;-0.25;63.64;99389.70;1789361;79;21502;-38
2022/01/07 06:56:06;;;;;;;3.02;1.30;;;;;;;-0.28;63.52;99398.25;1789220;80;21495;-38
2022/01/07 06:58:33;;;;;;;2.10;1.57;;;;;;;-0.26;63.59;99408.09;1791836;79;21527;-38
2022/01/07 07:00:59;;;;;;;2.55;1.40;;;;;;;-0.25;63.60;99411.02;1788499;79;21133;-38
2022/01/07 07:03:26;;;;;;;2.60;1.67;;;;;;;-0.22;63.10;99411.77;1788961;79;20951;-38
2022/01/07 07:05:53;;;;;;;2.72;1.70;;;;;;;-0.23;62.97;99410.97;1785199;78;21511;-38
2022/01/07 07:08:19;;;;;;;3.12;1.40;;;;;;;-0.20;62.66;99428.27;1791259;80;21767;-38
2022/01/07 07:10:46;;;;;;;2.55;1.55;;;;;;;-0.20;62.64;99434.39;1790032;79;21037;-38
2022/01/07 07:13:13;;;;;;;3.10;1.70;;;;;;;-0.22;62.58;99435.74;1787988;79;21764;-38
2022/01/07 07:15:39;;;;;;;3.05;1.52;;;;;;;-0.18;62.92;99446.08;1787798;80;21575;-38
2022/01/07 07:18:07;;;;;;;2.30;1.40;;;;;;;-0.16;62.87;99432.73;1787998;80;21480;-38
2022/01/07 07:20:34;;;;;;;3.52;1.67;;;;;;;-0.21;62.14;99433.34;1787922;80;21548;-38
2022/01/07 07:23:00;;;;;;;2.25;1.60;;;;;;;-0.13;62.05;99458.80;1781043;79;21009;-38
2022/01/07 07:25:27;;;;;;;2.02;1.37;;;;;;;-0.08;62.52;99464.06;1794575;79;21208;-37
2022/01/07 07:27:53;;;;;;;2.27;1.50;;;;;;;-0.03;62.34;99460.53;1800153;79;20962;-38
2022/01/07 07:30:20;;;;;;;2.10;1.35;;;;;;;-0.03;61.80;99457.87;1795258;78;21112;-38
2022/01/07 07:32:48;;;;;;;2.90;1.35;;;;;;;0.04;62.00;99470.31;1796664;79;21005;-38
2022/01/07 07:37:42;;;;;;;2.20;1.30;;;;;;;0.21;62.21;99467.13;1797783;78;21124;-38
2022/01/07 07:40:09;;;;;;;1.67;1.12;;;;;;;0.29;61.63;99475.27;1793291;78;21049;-38
2022/01/07 07:42:37;;;;;;;4.12;2.20;;;;;;;0.30;61.35;99487.52;1792901;80;21057;-38
2022/01/07 07:45:06;;;;;;;3.50;1.65;;;;;;;0.33;61.67;99493.63;1797404;79;21089;-38
2022/01/07 07:47:35;;;;;;;2.75;1.80;;;;;;;0.36;61.53;99490.37;1810923;78;21037;-38
2022/01/07 07:50:03;;;;;;;2.67;1.77;;;;;;;0.35;60.83;99499.45;1814469;78;21135;-38
2022/01/07 07:52:30;;;;;;;4.12;1.70;;;;;;;0.31;60.93;99498.98;1797543;79;21486;-38
2022/01/07 07:54:57;;;;;;;2.70;1.67;;;;;;;0.29;60.95;99509.92;1798691;79;21535;-38
2022/01/07 07:57:24;;;;;;;2.62;1.55;;;;;;;0.32;61.30;99512.04;1796925;79;21061;-38
2022/01/07 07:59:50;;;;;;;3.20;1.90;;;;;;;0.42;61.12;99515.10;1771718;79;21080;-38
2022/01/07 08:02:17;;;;;;;2.33;1.60;;;;;;;0.54;61.06;99514.65;1771838;81;21063;-38
2022/01/07 08:04:44;;;;;;;2.47;1.72;;;;;;;0.65;60.10;99518.22;1790998;79;20992;-38
2022/01/07 08:07:16;;;;;;;2.77;1.87;;;;;;;0.77;60.76;99532.47;1781715;79;21017;-38
2022/01/07 08:09:40;;;;;;;3.72;1.92;;;;;;;0.85;59.94;99543.27;1790805;79;21084;-38
2022/01/07 08:12:19;;;;;;;4.85;2.17;;;;;;;0.90;59.62;99541.59;1800080;79;21484;-38
2022/01/07 08:17:25;;;;;;;3.17;1.98;;;;;;;0.85;59.25;99550.47;1720999;79;20998;-38
2022/01/07 08:19:52;;;;;;;2.55;1.90;;;;;;;0.76;59.44;99560.22;1812618;78;21611;-38
2022/01/07 08:22:18;;;;;;;3.02;1.80;;;;;;;0.74;59.71;99562.38;1784657;78;20922;-38
2022/01/07 08:24:45;;;;;;;2.40;1.62;;;;;;;0.69;59.82;99581.13;1793863;79;21626;-38
2022/01/07 08:27:12;;;;;;;3.50;1.75;;;;;;;0.65;59.41;99576.12;1798243;79;21096;-38
2022/01/07 08:29:41;;;;;;;3.37;1.65;;;;;;;0.60;59.03;99580.98;1811024;78;21494;-38
2022/01/07 08:34:53;;;;;;;2.45;1.60;;;;;;;0.51;59.11;99593.92;1785336;78;20973;-38
2022/01/07 08:37:26;;;;;;;3.45;1.70;;;;;;;0.44;59.55;99604.94;1803983;78;21008;-38
2022/01/07 08:39:54;;;;;;;3.72;1.70;;;;;;;0.42;59.60;99604.45;1815739;79;21194;-38
2022/01/07 08:42:24;;;;;;;2.08;1.60;;;;;;;0.40;59.42;99614.05;1795682;79;21020;-38
2022/01/07 08:44:52;;;;;;;2.65;1.50;;;;;;;0.47;59.65;99616.38;1810288;79;21079;-38
2022/01/07 08:47:23;;;;;;;2.52;1.80;;;;;;;0.60;59.55;99624.21;1804533;78;21026;-38
2022/01/07 08:49:51;;;;;;;3.58;1.98;;;;;;;0.78;58.69;99619.41;1783681;80;21024;-39
2022/01/07 08:52:19;;;;;;;3.62;1.85;;;;;;;0.95;58.19;99619.72;1802968;78;21522;-38
2022/01/07 08:54:50;;;;;;;3.33;1.72;;;;;;;1.18;58.42;99612.16;1789910;78;20982;-39
2022/01/07 08:57:20;;;;;;;2.87;1.80;;;;;;;1.42;56.69;99621.38;1783680;79;20945;-38
2022/01/07 08:59:48;;;;;;;4.42;1.90;;;;;;;1.62;56.11;99624.25;1815162;79;21079;-38
2022/01/07 09:02:15;;;;;;;3.72;2.72;;;;;;;1.72;56.04;99625.41;1815266;78;21032;-39
2022/01/07 09:04:41;;;;;;;6.70;3.80;;;;;;;1.84;55.09;99628.39;1806990;79;21102;-39
2022/01/07 09:07:08;;;;;;;3.20;2.33;;;;;;;1.95;53.60;99627.13;1815613;79;20972;-39
2022/01/07 09:09:34;;;;;;;5.75;3.67;;;;;;;2.01;53.75;99625.95;1811160;79;21563;-38
2022/01/07 09:12:01;;;;;;;5.37;3.17;;;;;;;1.99;53.46;99629.45;1795451;78;21045;-38
2022/01/07 09:14:28;;;;;;;4.40;2.27;;;;;;;2.00;53.52;99637.72;1807352;79;21067;-38
2022/01/07 09:16:55;;;;;;;5.15;3.17;;;;;;;1.99;52.57;99642.82;1808867;79;21515;-39
2022/01/07 09:19:22;;;;;;;4.55;2.33;;;;;;;1.99;53.23;99642.82;1796272;79;21015;-39
2022/01/07 09:21:48;;;;;;;3.33;1.70;;;;;;;2.06;52.43;99640.56;1800064;78;20988;-38
2022/01/07 09:24:15;;;;;;;4.78;2.47;;;;;;;2.09;52.70;99645.84;1804451;78;20982;-38
2022/01/07 09:26:42;;;;;;;5.25;1.82;;;;;;;2.09;52.43;99648.52;1813342;78;21550;-39
2022/01/07 09:29:09;;;;;;;1.98;1.40;;;;;;;2.12;51.71;99654.63;1805729;79;21817;-39
2022/01/07 09:31:36;;;;;;;2.12;1.25;;;;;;;2.04;51.45;99654.76;1791212;79;20945;-38
2022/01/07 09:34:02;;;;;;;3.05;1.40;;;;;;;1.93;52.05;99658.73;1810458;78;21013;-38
2022/01/07 09:36:29;;;;;;;3.72;1.67;;;;;;;1.78;52.64;99665.67;1818350;78;20964;-38
2022/01/07 09:38:57;;;;;;;3.22;1.65;;;;;;;1.71;53.01;99666.58;1806852;78;21080;-39
2022/01/07 09:41:24;;;;;;;4.87;1.62;;;;;;;1.63;53.40;99669.94;1813058;79;21169;-39
2022/01/07 09:43:52;;;;;;;3.35;1.80;;;;;;;1.58;53.25;99675.36;1802246;78;21842;-38
2022/01/07 09:46:19;;;;;;;3.98;1.85;;;;;;;1.47;52.84;99673.93;1812017;78;21049;-39
2022/01/07 09:48:45;;;;;;;3.20;1.40;;;;;;;1.33;52.46;99682.44;1811157;79;21021;-39
2022/01/07 09:51:14;;;;;;;3.15;1.30;;;;;;;1.14;51.65;99681.11;1815862;78;21048;-39
2022/01/07 09:53:41;;;;;;;3.02;1.60;;;;;;;1.03;51.63;99677.79;1821275;78;21479;-39
2022/01/07 09:56:08;;;;;;;1.95;1.02;;;;;;;0.91;50.89;99684.65;1807618;79;21021;-38
2022/01/07 09:58:36;;;;;;;1.25;0.90;;;;;;;0.78;50.49;99688.80;1814416;78;21072;-38
2022/01/07 10:01:06;;;;;;;3.90;1.10;;;;;;;0.67;51.43;99695.37;1810799;79;21468;-39
2022/01/07 10:03:39;;;;;;;2.17;1.30;;;;;;;0.63;51.26;99693.02;1811679;78;21504;-39
2022/01/07 10:06:21;;;;;;;2.55;1.30;;;;;;;0.52;51.74;99701.67;1806841;78;21120;-39
2022/01/07 10:09:10;;;;;;;2.45;1.27;;;;;;;0.56;51.86;99699.23;1796117;79;21034;-39
2022/01/07 10:11:37;;;;;;;5.45;1.70;;;;;;;0.62;51.50;99702.09;1810005;78;21052;-39
2022/01/07 10:14:22;;;;;;;2.40;1.00;;;;;;;0.81;51.59;99698.38;1799220;78;21004;-38
2022/01/07 10:16:56;;;;;;;2.22;1.15;;;;;;;1.05;51.42;99697.00;1810610;78;21017;-39
2022/01/07 10:19:41;;;;;;;2.83;1.22;;;;;;;1.26;51.16;99690.27;1808004;78;21122;-38
2022/01/07 10:22:13;;;;;;;3.70;1.10;;;;;;;1.40;49.06;99697.02;1815858;79;20962;-38
2022/01/07 10:25:03;;;;;;;4.10;1.30;;;;;;;1.51;49.99;99698.44;1812327;78;21518;-39
2022/01/07 10:27:38;;;;;;;2.50;1.20;;;;;;;1.76;50.05;99703.92;1792878;78;21068;-40
2022/01/07 10:30:13;;;;;;;3.08;1.22;;;;;;;2.09;48.61;99697.45;1775334;80;21044;-40
2022/01/07 10:32:41;;;;;;;1.02;0.80;;;;;;;2.39;47.18;99706.00;1780703;79;21190;-40
2022/01/07 10:35:16;;;;;;;1.47;0.93;;;;;;;2.50;46.91;99710.87;1780596;80;20972;-40
2022/01/07 10:38:00;;;;;;;2.92;1.00;;;;;;;2.56;47.01;99709.70;1780906;80;20989;-40
2022/01/07 10:40:35;;;;;;;1.75;1.02;;;;;;;2.46;45.67;99707.75;1777368;80;21625;-40
2022/01/07 10:43:19;;;;;;;2.95;1.60;;;;;;;2.33;46.43;99705.30;1776457;80;21012;-40
2022/01/07 10:45:55;;;;;;;1.98;1.07;;;;;;;2.21;46.63;99705.02;1774542;80;21134;-40
2022/01/07 10:48:43;;;;;;;2.47;1.02;;;;;;;2.11;46.62;99716.69;1775568;80;21020;-41
2022/01/07 10:51:18;;;;;;;1.65;0.93;;;;;;;1.98;46.75;99714.78;1760749;80;20966;-40
2022/01/07 10:53:56;;;;;;;2.60;1.20;;;;;;;1.82;47.31;99712.11;1759811;80;21076;-40
2022/01/07 10:56:36;;;;;;;2.35;1.00;;;;;;;1.64;47.02;99715.08;1746600;80;21098;-40
2022/01/07 10:59:08;;;;;;;;;;;;;;;1.45;48.06;99721.53;1761614;80;21136;-40
2022/01/07 11:01:57;;;;;;;2.92;1.00;;;;;;;1.29;48.55;99715.61;1774433;80;20145;-40
2022/01/07 11:04:29;;;;;;;6.53;1.23;;;;;;;1.13;49.27;99714.23;1769529;80;21270;-40
2022/01/07 11:07:00;;;;;;;3.55;1.57;;;;;;;1.09;49.09;99722.03;1779679;79;20980;-40
2022/01/07 11:09:26;;;;;;;2.87;1.27;;;;;;;1.04;49.38;99728.77;1770428;79;21029;-40
2022/01/07 11:12:01;;;;;;;2.95;1.55;;;;;;;1.00;49.64;99719.75;1779170;80;21127;-40
2022/01/07 11:14:40;;;;;;;2.42;1.10;;;;;;;0.87;49.64;99722.56;1775306;80;21000;-39
2022/01/07 11:17:04;;;;;;;2.98;1.40;;;;;;;0.82;50.63;99727.20;1766367;80;20975;-40
2022/01/07 11:19:35;;;;;;;1.92;1.10;;;;;;;0.78;50.98;99722.95;1776860;80;21026;-40
2022/01/07 11:22:02;;;;;;;3.80;1.27;;;;;;;0.79;51.24;99729.09;1772864;80;21510;-40
2022/01/07 11:24:47;;;;;;;3.35;1.32;;;;;;;0.76;51.59;99719.00;1747135;80;21137;-40
2022/01/07 11:27:16;;;;;;;2.95;1.20;;;;;;;0.73;52.28;99724.34;1747609;78;21020;-40
2022/01/07 11:29:56;;;;;;;4.90;1.42;;;;;;;0.73;52.69;99730.22;1775974;80;22591;-40
2022/01/07 11:32:46;;;;;;;1.55;1.20;;;;;;;0.74;52.88;99722.48;1775649;80;21067;-40
2022/01/07 11:35:24;;;;;;;2.52;1.40;;;;;;;0.77;53.36;99733.94;1763819;80;21001;-40
2022/01/07 11:37:57;;;;;;;3.15;1.35;;;;;;;0.84;53.29;99727.69;1768125;80;21133;-39
2022/01/07 11:40:42;;;;;;;3.90;1.60;;;;;;;0.99;53.34;99731.50;1759968;80;20969;-39
2022/01/07 11:43:20;;;;;;;2.00;1.20;;;;;;;1.35;53.25;99733.70;1772507;80;21046;-40
2022/01/07 11:45:48;;;;;;;2.37;1.37;;;;;;;1.79;51.98;99732.75;1759894;80;20929;-39
2022/01/07 11:48:24;;;;;;;2.72;1.25;;;;;;;2.10;50.03;99741.84;1775752;80;20993;-40
2022/01/07 11:51:02;;;;;;;2.33;1.17;;;;;;;2.25;49.65;99737.30;1770212;80;21141;-40
2022/01/07 11:53:42;;;;;;;2.60;1.50;;;;;;;2.44;49.01;99730.79;1755742;81;20930;-40
2022/01/07 11:56:13;;;;;;;2.95;1.30;;;;;;;2.53;48.62;99741.05;1772728;79;20970;-40
2022/01/07 11:58:54;;;;;;;2.65;1.50;;;;;;;2.65;48.94;99739.77;1777369;80;20925;-39